Terminal Aerodrome Forecast
Issued by NWS Billings, MT

Home | Current Version | Previous Version | Text Only | Print | Product List | Glossary On
Versions: 1 2 3 4 5 6 7 8 9 10 11 12 13 14 15 16 17 18 19 20 21 22 23 24
721
FTUS45 KBYZ 250532
TAFMLS
TAF
KMLS 250532Z 2506/2606 15013G20KT P6SM BKN150
     FM250800 16009KT P6SM BKN120
     FM251500 31011KT P6SM BKN080
     FM252100 28007KT P6SM VCSH BKN060=

USA.gov is the U.S. government's official web portal to all federal, state and local government web resources and services.